sensor_id;sensor_type;location;lat;lon;timestamp;pressure;altitude;pressure_sealevel;temperature;humidity
74372;BME280;62885;51.374;6.170;2024-01-11T00:00:06;60863.97;;;-143.06;100.00
74372;BME280;62885;51.374;6.170;2024-01-11T00:02:32;60863.97;;;-143.06;100.00
74372;BME280;62885;51.374;6.170;2024-01-11T00:04:57;60863.97;;;-143.06;100.00
74372;BME280;62885;51.374;6.170;2024-01-11T00:07:23;60863.97;;;-143.06;100.00
74372;BME280;62885;51.374;6.170;2024-01-11T00:09:48;60863.97;;;-143.06;100.00
74372;BME280;62885;51.374;6.170;2024-01-11T00:12:13;60863.97;;;-143.06;100.00
74372;BME280;62885;51.374;6.170;2024-01-11T00:14:40;60863.97;;;-143.06;100.00
74372;BME280;62885;51.374;6.170;2024-01-11T00:17:05;60863.97;;;-143.06;100.00
74372;BME280;62885;51.374;6.170;2024-01-11T00:19:30;60863.97;;;-143.06;100.00
74372;BME280;62885;51.374;6.170;2024-01-11T00:21:57;60863.97;;;-143.06;100.00
74372;BME280;62885;51.374;6.170;2024-01-11T00:24:24;60863.97;;;-143.06;100.00
74372;BME280;62885;51.374;6.170;2024-01-11T00:26:50;60863.97;;;-143.06;100.00
74372;BME280;62885;51.374;6.170;2024-01-11T00:29:15;60863.97;;;-143.06;100.00
74372;BME280;62885;51.374;6.170;2024-01-11T00:31:40;60863.97;;;-143.06;100.00
74372;BME280;62885;51.374;6.170;2024-01-11T00:34:06;60863.97;;;-143.06;100.00
74372;BME280;62885;51.374;6.170;2024-01-11T00:36:31;60863.97;;;-143.06;100.00
74372;BME280;62885;51.374;6.170;2024-01-11T00:38:58;60863.97;;;-143.06;100.00
74372;BME280;62885;51.374;6.170;2024-01-11T00:41:24;60863.97;;;-143.06;100.00
74372;BME280;62885;51.374;6.170;2024-01-11T00:43:50;60863.97;;;-143.06;100.00
74372;BME280;62885;51.374;6.170;2024-01-11T00:46:15;60863.97;;;-143.06;100.00
74372;BME280;62885;51.374;6.170;2024-01-11T00:48:40;60863.97;;;-143.06;100.00
74372;BME280;62885;51.374;6.170;2024-01-11T00:51:06;60863.97;;;-143.06;100.00
74372;BME280;62885;51.374;6.170;2024-01-11T00:53:32;60863.97;;;-143.06;100.00
74372;BME280;62885;51.374;6.170;2024-01-11T00:55:58;60863.97;;;-143.06;100.00
74372;BME280;62885;51.374;6.170;2024-01-11T00:58:23;60863.97;;;-143.06;100.00
74372;BME280;62885;51.374;6.170;2024-01-11T01:00:51;60863.97;;;-143.06;100.00
74372;BME280;62885;51.374;6.170;2024-01-11T01:03:18;60863.97;;;-143.06;100.00
74372;BME280;62885;51.374;6.170;2024-01-11T01:05:44;60863.97;;;-143.06;100.00
74372;BME280;62885;51.374;6.170;2024-01-11T01:08:10;60863.97;;;-143.06;100.00
74372;BME280;62885;51.374;6.170;2024-01-11T01:10:35;60863.97;;;-143.06;100.00
74372;BME280;62885;51.374;6.170;2024-01-11T01:13:01;60863.97;;;-143.06;100.00
74372;BME280;62885;51.374;6.170;2024-01-11T01:15:26;60863.97;;;-143.06;100.00
74372;BME280;62885;51.374;6.170;2024-01-11T01:17:51;60863.97;;;-143.06;100.00
74372;BME280;62885;51.374;6.170;2024-01-11T01:20:17;60863.97;;;-143.06;100.00
74372;BME280;62885;51.374;6.170;2024-01-11T01:22:42;60863.97;;;-143.06;100.00
74372;BME280;62885;51.374;6.170;2024-01-11T01:25:08;60863.97;;;-143.06;100.00
74372;BME280;62885;51.374;6.170;2024-01-11T01:27:33;60863.97;;;-143.06;100.00
74372;BME280;62885;51.374;6.170;2024-01-11T01:29:59;60863.97;;;-143.06;100.00
74372;BME280;62885;51.374;6.170;2024-01-11T01:32:24;60863.97;;;-143.06;100.00
74372;BME280;62885;51.374;6.170;2024-01-11T01:34:49;60863.97;;;-143.06;100.00
74372;BME280;62885;51.374;6.170;2024-01-11T01:37:17;60863.97;;;-143.06;100.00
74372;BME280;62885;51.374;6.170;2024-01-11T01:39:42;60863.97;;;-143.06;100.00
74372;BME280;62885;51.374;6.170;2024-01-11T01:42:08;60863.97;;;-143.06;100.00
74372;BME280;62885;51.374;6.170;2024-01-11T01:44:33;60863.97;;;-143.06;100.00
74372;BME280;62885;51.374;6.170;2024-01-11T01:46:59;60863.97;;;-143.06;100.00
74372;BME280;62885;51.374;6.170;2024-01-11T01:49:25;60863.97;;;-143.06;100.00
74372;BME280;62885;51.374;6.170;2024-01-11T01:51:52;60863.97;;;-143.06;100.00
74372;BME280;62885;51.374;6.170;2024-01-11T01:54:19;60863.97;;;-143.06;100.00
74372;BME280;62885;51.374;6.170;2024-01-11T01:56:46;60863.97;;;-143.06;100.00
74372;BME280;62885;51.374;6.170;2024-01-11T01:59:12;60863.97;;;-143.06;100.00
74372;BME280;62885;51.374;6.170;2024-01-11T02:01:39;60863.97;;;-143.06;100.00
74372;BME280;62885;51.374;6.170;2024-01-11T02:04:05;60863.97;;;-143.06;100.00
74372;BME280;62885;51.374;6.170;2024-01-11T02:06:32;60863.97;;;-143.06;100.00
74372;BME280;62885;51.374;6.170;2024-01-11T02:09:00;60863.97;;;-143.06;100.00
74372;BME280;62885;51.374;6.170;2024-01-11T02:11:28;60863.97;;;-143.06;100.00
74372;BME280;62885;51.374;6.170;2024-01-11T02:13:53;60863.97;;;-143.06;100.00
74372;BME280;62885;51.374;6.170;2024-01-11T02:16:19;60863.97;;;-143.06;100.00
74372;BME280;62885;51.374;6.170;2024-01-11T02:18:44;60863.97;;;-143.06;100.00
74372;BME280;62885;51.374;6.170;2024-01-11T02:21:11;60863.97;;;-143.06;100.00
74372;BME280;62885;51.374;6.170;2024-01-11T02:23:43;60863.97;;;-143.06;100.00
74372;BME280;62885;51.374;6.170;2024-01-11T02:26:11;60863.97;;;-143.06;100.00
74372;BME280;62885;51.374;6.170;2024-01-11T02:28:37;60863.97;;;-143.06;100.00
74372;BME280;62885;51.374;6.170;2024-01-11T02:31:02;60863.97;;;-143.06;100.00
74372;BME280;62885;51.374;6.170;2024-01-11T02:33:28;60863.97;;;-143.06;100.00
74372;BME280;62885;51.374;6.170;2024-01-11T02:35:53;60863.97;;;-143.06;100.00
74372;BME280;62885;51.374;6.170;2024-01-11T02:38:21;60863.97;;;-143.06;100.00
74372;BME280;62885;51.374;6.170;2024-01-11T02:40:47;60863.97;;;-143.06;100.00
74372;BME280;62885;51.374;6.170;2024-01-11T02:43:13;60863.97;;;-143.06;100.00
74372;BME280;62885;51.374;6.170;2024-01-11T02:45:38;60863.97;;;-143.06;100.00
74372;BME280;62885;51.374;6.170;2024-01-11T02:48:04;60863.97;;;-143.06;100.00
74372;BME280;62885;51.374;6.170;2024-01-11T02:50:29;60863.97;;;-143.06;100.00
74372;BME280;62885;51.374;6.170;2024-01-11T02:52:55;60863.97;;;-143.06;100.00
74372;BME280;62885;51.374;6.170;2024-01-11T02:55:20;60863.97;;;-143.06;100.00
74372;BME280;62885;51.374;6.170;2024-01-11T02:57:45;60863.97;;;-143.06;100.00
74372;BME280;62885;51.374;6.170;2024-01-11T03:00:11;60863.97;;;-143.06;100.00
74372;BME280;62885;51.374;6.170;2024-01-11T03:02:37;60863.97;;;-143.06;100.00
74372;BME280;62885;51.374;6.170;2024-01-11T03:05:03;60863.97;;;-143.06;100.00
74372;BME280;62885;51.374;6.170;2024-01-11T03:07:29;60863.97;;;-143.06;100.00
74372;BME280;62885;51.374;6.170;2024-01-11T03:09:55;60863.97;;;-143.06;100.00
74372;BME280;62885;51.374;6.170;2024-01-11T03:12:21;60863.97;;;-143.06;100.00
74372;BME280;62885;51.374;6.170;2024-01-11T03:14:47;60863.97;;;-143.06;100.00
74372;BME280;62885;51.374;6.170;2024-01-11T03:17:12;60863.97;;;-143.06;100.00
74372;BME280;62885;51.374;6.170;2024-01-11T03:19:41;60863.97;;;-143.06;100.00
74372;BME280;62885;51.374;6.170;2024-01-11T03:22:06;60863.97;;;-143.06;100.00
74372;BME280;62885;51.374;6.170;2024-01-11T03:24:37;60863.97;;;-143.06;100.00
74372;BME280;62885;51.374;6.170;2024-01-11T03:27:04;60863.97;;;-143.06;100.00
74372;BME280;62885;51.374;6.170;2024-01-11T03:29:31;60863.97;;;-143.06;100.00
74372;BME280;62885;51.374;6.170;2024-01-11T03:31:56;60863.97;;;-143.06;100.00
74372;BME280;62885;51.374;6.170;2024-01-11T03:34:21;60863.97;;;-143.06;100.00
74372;BME280;62885;51.374;6.170;2024-01-11T03:36:47;60863.97;;;-143.06;100.00
74372;BME280;62885;51.374;6.170;2024-01-11T03:39:12;60863.97;;;-143.06;100.00
74372;BME280;62885;51.374;6.170;2024-01-11T03:41:43;60863.97;;;-143.06;100.00
74372;BME280;62885;51.374;6.170;2024-01-11T03:44:09;60863.97;;;-143.06;100.00
74372;BME280;62885;51.374;6.170;2024-01-11T03:46:34;60863.97;;;-143.06;100.00
74372;BME280;62885;51.374;6.170;2024-01-11T03:48:59;60863.97;;;-143.06;100.00
74372;BME280;62885;51.374;6.170;2024-01-11T03:51:25;60863.97;;;-143.06;100.00
74372;BME280;62885;51.374;6.170;2024-01-11T03:53:50;60863.97;;;-143.06;100.00
74372;BME280;62885;51.374;6.170;2024-01-11T03:56:15;60863.97;;;-143.06;100.00
74372;BME280;62885;51.374;6.170;2024-01-11T03:58:41;60863.97;;;-143.06;100.00
74372;BME280;62885;51.374;6.170;2024-01-11T04:01:09;60863.97;;;-143.06;100.00
74372;BME280;62885;51.374;6.170;2024-01-11T04:03:35;60863.97;;;-143.06;100.00
74372;BME280;62885;51.374;6.170;2024-01-11T04:06:01;60863.97;;;-143.06;100.00
74372;BME280;62885;51.374;6.170;2024-01-11T04:08:26;60863.97;;;-143.06;100.00
74372;BME280;62885;51.374;6.170;2024-01-11T04:10:52;60863.97;;;-143.06;100.00
74372;BME280;62885;51.374;6.170;2024-01-11T04:13:17;60863.97;;;-143.06;100.00
74372;BME280;62885;51.374;6.170;2024-01-11T04:15:42;60863.97;;;-143.06;100.00
74372;BME280;62885;51.374;6.170;2024-01-11T04:18:08;60863.97;;;-143.06;100.00
74372;BME280;62885;51.374;6.170;2024-01-11T04:20:33;60863.97;;;-143.06;100.00
74372;BME280;62885;51.374;6.170;2024-01-11T04:22:59;60863.97;;;-143.06;100.00
74372;BME280;62885;51.374;6.170;2024-01-11T04:25:24;60863.97;;;-143.06;100.00
74372;BME280;62885;51.374;6.170;2024-01-11T04:27:50;60863.97;;;-143.06;100.00
74372;BME280;62885;51.374;6.170;2024-01-11T04:30:15;60863.97;;;-143.06;100.00
74372;BME280;62885;51.374;6.170;2024-01-11T04:32:41;60863.97;;;-143.06;100.00
74372;BME280;62885;51.374;6.170;2024-01-11T04:35:06;60863.97;;;-143.06;100.00
74372;BME280;62885;51.374;6.170;2024-01-11T04:37:33;60863.97;;;-143.06;100.00
74372;BME280;62885;51.374;6.170;2024-01-11T04:40:01;60863.97;;;-143.06;100.00
74372;BME280;62885;51.374;6.170;2024-01-11T04:42:29;60863.97;;;-143.06;100.00
74372;BME280;62885;51.374;6.170;2024-01-11T04:44:54;60863.97;;;-143.06;100.00
74372;BME280;62885;51.374;6.170;2024-01-11T04:47:20;60863.97;;;-143.06;100.00
74372;BME280;62885;51.374;6.170;2024-01-11T04:49:45;60863.97;;;-143.06;100.00
74372;BME280;62885;51.374;6.170;2024-01-11T04:52:10;60863.97;;;-143.06;100.00
74372;BME280;62885;51.374;6.170;2024-01-11T04:54:36;60863.97;;;-143.06;100.00
74372;BME280;62885;51.374;6.170;2024-01-11T04:57:03;60863.97;;;-143.06;100.00
74372;BME280;62885;51.374;6.170;2024-01-11T04:59:28;60863.97;;;-143.06;100.00
74372;BME280;62885;51.374;6.170;2024-01-11T05:01:54;60863.97;;;-143.06;100.00
74372;BME280;62885;51.374;6.170;2024-01-11T05:04:19;60863.97;;;-143.06;100.00
74372;BME280;62885;51.374;6.170;2024-01-11T05:06:44;60863.97;;;-143.06;100.00
74372;BME280;62885;51.374;6.170;2024-01-11T05:09:10;60863.97;;;-143.06;100.00
74372;BME280;62885;51.374;6.170;2024-01-11T05:11:35;60863.97;;;-143.06;100.00
74372;BME280;62885;51.374;6.170;2024-01-11T05:14:01;60863.97;;;-143.06;100.00
74372;BME280;62885;51.374;6.170;2024-01-11T05:16:27;60863.97;;;-143.06;100.00
74372;BME280;62885;51.374;6.170;2024-01-11T05:18:54;60863.97;;;-143.06;100.00
74372;BME280;62885;51.374;6.170;2024-01-11T05:21:21;60863.97;;;-143.06;100.00
74372;BME280;62885;51.374;6.170;2024-01-11T05:23:46;60863.97;;;-143.06;100.00
74372;BME280;62885;51.374;6.170;2024-01-11T05:26:16;60863.97;;;-143.06;100.00
74372;BME280;62885;51.374;6.170;2024-01-11T05:28:42;60863.97;;;-143.06;100.00
74372;BME280;62885;51.374;6.170;2024-01-11T05:31:09;60863.97;;;-143.06;100.00
74372;BME280;62885;51.374;6.170;2024-01-11T05:33:35;60863.97;;;-143.06;100.00
74372;BME280;62885;51.374;6.170;2024-01-11T05:36:01;60863.97;;;-143.06;100.00
74372;BME280;62885;51.374;6.170;2024-01-11T05:38:26;60863.97;;;-143.06;100.00
74372;BME280;62885;51.374;6.170;2024-01-11T05:40:52;60863.97;;;-143.06;100.00
74372;BME280;62885;51.374;6.170;2024-01-11T05:43:18;60863.97;;;-143.06;100.00
74372;BME280;62885;51.374;6.170;2024-01-11T05:45:43;60863.97;;;-143.06;100.00
74372;BME280;62885;51.374;6.170;2024-01-11T05:48:10;60863.97;;;-143.06;100.00
74372;BME280;62885;51.374;6.170;2024-01-11T05:50:36;60863.97;;;-143.06;100.00
74372;BME280;62885;51.374;6.170;2024-01-11T05:53:01;60863.97;;;-143.06;100.00
74372;BME280;62885;51.374;6.170;2024-01-11T05:55:26;60863.97;;;-143.06;100.00
74372;BME280;62885;51.374;6.170;2024-01-11T05:57:52;60863.97;;;-143.06;100.00
74372;BME280;62885;51.374;6.170;2024-01-11T06:00:17;60863.97;;;-143.06;100.00
74372;BME280;62885;51.374;6.170;2024-01-11T06:02:43;60863.97;;;-143.06;100.00
74372;BME280;62885;51.374;6.170;2024-01-11T06:05:08;60863.97;;;-143.06;100.00
74372;BME280;62885;51.374;6.170;2024-01-11T06:07:34;60863.97;;;-143.06;100.00
74372;BME280;62885;51.374;6.170;2024-01-11T06:10:00;60863.97;;;-143.06;100.00
74372;BME280;62885;51.374;6.170;2024-01-11T06:12:28;60863.97;;;-143.06;100.00
74372;BME280;62885;51.374;6.170;2024-01-11T06:14:53;60863.97;;;-143.06;100.00
74372;BME280;62885;51.374;6.170;2024-01-11T06:17:18;60863.97;;;-143.06;100.00
74372;BME280;62885;51.374;6.170;2024-01-11T06:19:44;60863.97;;;-143.06;100.00
74372;BME280;62885;51.374;6.170;2024-01-11T06:22:09;60863.97;;;-143.06;100.00
74372;BME280;62885;51.374;6.170;2024-01-11T06:24:35;60863.97;;;-143.06;100.00
74372;BME280;62885;51.374;6.170;2024-01-11T06:27:00;60863.97;;;-143.06;100.00
74372;BME280;62885;51.374;6.170;2024-01-11T06:29:26;60863.97;;;-143.06;100.00
74372;BME280;62885;51.374;6.170;2024-01-11T06:31:51;60863.97;;;-143.06;100.00
74372;BME280;62885;51.374;6.170;2024-01-11T06:34:16;60863.97;;;-143.06;100.00
74372;BME280;62885;51.374;6.170;2024-01-11T06:36:42;60863.97;;;-143.06;100.00
74372;BME280;62885;51.374;6.170;2024-01-11T06:39:08;60863.97;;;-143.06;100.00
74372;BME280;62885;51.374;6.170;2024-01-11T06:43:33;61965.78;;;-5.49;100.00
74372;BME280;62885;51.374;6.170;2024-01-11T06:46:05;61963.22;;;-5.49;100.00
74372;BME280;62885;51.374;6.170;2024-01-11T06:48:31;61957.34;;;-5.55;100.00
74372;BME280;62885;51.374;6.170;2024-01-11T06:50:57;61965.25;;;-5.50;100.00
74372;BME280;62885;51.374;6.170;2024-01-11T06:53:22;61965.88;;;-5.47;100.00
74372;BME280;62885;51.374;6.170;2024-01-11T06:58:23;61961.00;;;-5.54;100.00
74372;BME280;62885;51.374;6.170;2024-01-11T07:00:49;61963.13;;;-5.52;100.00
74372;BME280;62885;51.374;6.170;2024-01-11T07:03:16;61954.91;;;-5.64;100.00
74372;BME280;62885;51.374;6.170;2024-01-11T07:05:42;61945.66;;;-5.63;100.00
74372;BME280;62885;51.374;6.170;2024-01-11T07:08:07;61952.53;;;-5.59;100.00
74372;BME280;62885;51.374;6.170;2024-01-11T07:10:33;61951.88;;;-5.62;100.00
74372;BME280;62885;51.374;6.170;2024-01-11T07:12:58;61958.31;;;-5.56;100.00
74372;BME280;62885;51.374;6.170;2024-01-11T07:15:24;61947.16;;;-5.64;100.00
74372;BME280;62885;51.374;6.170;2024-01-11T07:17:49;61947.59;;;-5.66;100.00
74372;BME280;62885;51.374;6.170;2024-01-11T07:20:14;61923.63;;;-5.87;100.00
74372;BME280;62885;51.374;6.170;2024-01-11T07:22:42;61929.97;;;-5.83;100.00
74372;BME280;62885;51.374;6.170;2024-01-11T07:25:07;61933.69;;;-5.80;100.00
74372;BME280;62885;51.374;6.170;2024-01-11T07:27:33;61933.69;;;-5.80;100.00
74372;BME280;62885;51.374;6.170;2024-01-11T07:29:58;61923.09;;;-5.87;100.00
74372;BME280;62885;51.374;6.170;2024-01-11T07:32:23;61877.53;;;-6.06;100.00
74372;BME280;62885;51.374;6.170;2024-01-11T07:34:49;61917.69;;;-5.95;100.00
74372;BME280;62885;51.374;6.170;2024-01-11T07:37:14;61913.38;;;-5.99;100.00
74372;BME280;62885;51.374;6.170;2024-01-11T07:39:40;61919.19;;;-5.96;100.00
74372;BME280;62885;51.374;6.170;2024-01-11T07:42:05;61919.72;;;-5.95;100.00
74372;BME280;62885;51.374;6.170;2024-01-11T07:44:31;61905.38;;;-6.06;100.00
74372;BME280;62885;51.374;6.170;2024-01-11T07:46:56;61859.34;;;-6.23;100.00
74372;BME280;62885;51.374;6.170;2024-01-11T07:49:22;61887.28;;;-6.21;100.00
74372;BME280;62885;51.374;6.170;2024-01-11T07:51:47;61877.03;;;-6.33;100.00
74372;BME280;62885;51.374;6.170;2024-01-11T07:54:13;61891.38;;;-6.22;100.00
74372;BME280;62885;51.374;6.170;2024-01-11T07:56:38;61907.59;;;-6.02;100.00
74372;BME280;62885;51.374;6.170;2024-01-11T07:59:05;61908.03;;;-6.04;100.00
74372;BME280;62885;51.374;6.170;2024-01-11T08:01:30;61919.91;;;-5.90;100.00
74372;BME280;62885;51.374;6.170;2024-01-11T08:03:56;61918.22;;;-5.94;100.00
74372;BME280;62885;51.374;6.170;2024-01-11T08:06:21;61921.41;;;-5.91;100.00
74372;BME280;62885;51.374;6.170;2024-01-11T08:08:46;61936.81;;;-5.79;100.00
74372;BME280;62885;51.374;6.170;2024-01-11T08:11:17;61941.72;;;-5.72;100.00
74372;BME280;62885;51.374;6.170;2024-01-11T08:13:42;61942.44;;;-5.66;100.00
74372;BME280;62885;51.374;6.170;2024-01-11T08:16:07;61942.81;;;-5.71;100.00
74372;BME280;62885;51.374;6.170;2024-01-11T08:18:35;61938.97;;;-5.77;100.00
74372;BME280;62885;51.374;6.170;2024-01-11T08:21:00;61948.16;;;-5.66;100.00
74372;BME280;62885;51.374;6.170;2024-01-11T08:23:26;61943.84;;;-5.70;100.00
74372;BME280;62885;51.374;6.170;2024-01-11T08:25:51;61945.03;;;-5.66;100.00
74372;BME280;62885;51.374;6.170;2024-01-11T08:28:18;61957.69;;;-5.59;100.00
74372;BME280;62885;51.374;6.170;2024-01-11T08:30:43;61955.53;;;-5.61;100.00
74372;BME280;62885;51.374;6.170;2024-01-11T08:33:09;61944.50;;;-5.67;100.00
74372;BME280;62885;51.374;6.170;2024-01-11T08:35:34;61949.31;;;-5.62;100.00
74372;BME280;62885;51.374;6.170;2024-01-11T08:38:00;61958.91;;;-5.53;100.00
74372;BME280;62885;51.374;6.170;2024-01-11T08:40:25;61972.66;;;-5.45;100.00
74372;BME280;62885;51.374;6.170;2024-01-11T08:42:50;61982.81;;;-5.35;100.00
74372;BME280;62885;51.374;6.170;2024-01-11T08:45:16;61986.75;;;-5.27;100.00
74372;BME280;62885;51.374;6.170;2024-01-11T08:47:46;61991.56;;;-5.22;100.00
74372;BME280;62885;51.374;6.170;2024-01-11T08:50:13;61986.22;;;-5.27;100.00
74372;BME280;62885;51.374;6.170;2024-01-11T08:52:39;62001.22;;;-5.13;100.00
74372;BME280;62885;51.374;6.170;2024-01-11T08:55:05;61999.50;;;-5.17;100.00
74372;BME280;62885;51.374;6.170;2024-01-11T08:57:30;61989.34;;;-5.27;100.00
74372;BME280;62885;51.374;6.170;2024-01-11T08:59:56;61986.75;;;-5.27;100.00
74372;BME280;62885;51.374;6.170;2024-01-11T09:02:21;62005.38;;;-5.12;100.00
74372;BME280;62885;51.374;6.170;2024-01-11T09:04:48;62006.66;;;-5.06;100.00
74372;BME280;62885;51.374;6.170;2024-01-11T09:07:14;62001.66;;;-5.15;100.00
74372;BME280;62885;51.374;6.170;2024-01-11T09:09:41;62026.88;;;-4.89;100.00
74372;BME280;62885;51.374;6.170;2024-01-11T09:12:06;62035.81;;;-4.85;100.00
74372;BME280;62885;51.374;6.170;2024-01-11T09:14:32;62013.44;;;-5.04;99.94
74372;BME280;62885;51.374;6.170;2024-01-11T09:16:57;62020.56;;;-4.92;100.00
74372;BME280;62885;51.374;6.170;2024-01-11T09:19:23;62013.59;;;-4.99;100.00
74372;BME280;62885;51.374;6.170;2024-01-11T09:21:49;62040.09;;;-4.81;100.00
74372;BME280;62885;51.374;6.170;2024-01-11T09:24:14;62049.28;;;-4.70;100.00
74372;BME280;62885;51.374;6.170;2024-01-11T09:26:42;62049.94;;;-4.67;99.87
74372;BME280;62885;51.374;6.170;2024-01-11T09:29:07;62064.84;;;-4.56;99.30
74372;BME280;62885;51.374;6.170;2024-01-11T09:31:32;62067.50;;;-4.53;98.82
74372;BME280;62885;51.374;6.170;2024-01-11T09:33:58;62055.81;;;-4.62;98.98
74372;BME280;62885;51.374;6.170;2024-01-11T09:36:23;62072.25;;;-4.51;98.58
74372;BME280;62885;51.374;6.170;2024-01-11T09:38:49;62071.25;;;-4.49;98.88
74372;BME280;62885;51.374;6.170;2024-01-11T09:41:14;62068.13;;;-4.50;98.71
74372;BME280;62885;51.374;6.170;2024-01-11T09:43:43;62075.66;;;-4.43;99.06
74372;BME280;62885;51.374;6.170;2024-01-11T09:46:11;62090.09;;;-4.29;98.25
74372;BME280;62885;51.374;6.170;2024-01-11T09:48:40;62097.50;;;-4.25;98.13
74372;BME280;62885;51.374;6.170;2024-01-11T09:51:10;62099.75;;;-4.20;97.77
74372;BME280;62885;51.374;6.170;2024-01-11T09:53:37;62107.22;;;-4.13;97.28
74372;BME280;62885;51.374;6.170;2024-01-11T09:56:07;62113.13;;;-4.07;97.45
74372;BME280;62885;51.374;6.170;2024-01-11T09:58:34;62130.72;;;-3.93;96.73
74372;BME280;62885;51.374;6.170;2024-01-11T10:01:02;62120.72;;;-3.98;96.29
74372;BME280;62885;51.374;6.170;2024-01-11T10:03:28;62134.56;;;-3.87;96.35
74372;BME280;62885;51.374;6.170;2024-01-11T10:05:57;62134.56;;;-3.87;95.75
74372;BME280;62885;51.374;6.170;2024-01-11T10:08:23;62140.38;;;-3.84;96.15
74372;BME280;62885;51.374;6.170;2024-01-11T10:10:49;62144.69;;;-3.80;95.74
74372;BME280;62885;51.374;6.170;2024-01-11T10:13:15;62163.44;;;-3.62;95.54
74372;BME280;62885;51.374;6.170;2024-01-11T10:15:42;62179.97;;;-3.49;94.72
74372;BME280;62885;51.374;6.170;2024-01-11T10:18:07;62173.63;;;-3.53;94.57
74372;BME280;62885;51.374;6.170;2024-01-11T10:20:32;62180.59;;;-3.46;94.57
74372;BME280;62885;51.374;6.170;2024-01-11T10:22:58;62173.19;;;-3.51;95.17
74372;BME280;62885;51.374;6.170;2024-01-11T10:25:24;62163.88;;;-3.35;94.21
74372;BME280;62885;51.374;6.170;2024-01-11T10:27:50;62190.88;;;-3.34;94.33
74372;BME280;62885;51.374;6.170;2024-01-11T10:30:16;62199.44;;;-3.26;93.75
74372;BME280;62885;51.374;6.170;2024-01-11T10:32:43;62195.78;;;-3.27;93.83
74372;BME280;62885;51.374;6.170;2024-01-11T10:35:08;62204.19;;;-3.24;93.46
74372;BME280;62885;51.374;6.170;2024-01-11T10:37:36;62216.09;;;-3.10;93.49
74372;BME280;62885;51.374;6.170;2024-01-11T10:40:06;62235.94;;;-2.92;92.88
74372;BME280;62885;51.374;6.170;2024-01-11T10:42:51;62219.94;;;-3.04;92.66
74372;BME280;62885;51.374;6.170;2024-01-11T10:45:20;62234.75;;;-2.95;92.35
74372;BME280;62885;51.374;6.170;2024-01-11T10:48:02;62241.31;;;-2.86;91.46
74372;BME280;62885;51.374;6.170;2024-01-11T10:50:34;62252.03;;;-2.76;91.24
74372;BME280;62885;51.374;6.170;2024-01-11T10:53:05;62246.03;;;-2.84;90.72
74372;BME280;62885;51.374;6.170;2024-01-11T10:55:35;62253.66;;;-2.75;90.48
74372;BME280;62885;51.374;6.170;2024-01-11T10:58:01;62262.31;;;-2.64;90.38
74372;BME280;62885;51.374;6.170;2024-01-11T11:00:30;62268.03;;;-2.64;90.16
74372;BME280;62885;51.374;6.170;2024-01-11T11:02:58;62282.53;;;-2.50;90.57
74372;BME280;62885;51.374;6.170;2024-01-11T11:05:25;62280.56;;;-2.47;90.41
74372;BME280;62885;51.374;6.170;2024-01-11T11:07:53;62288.44;;;-2.44;89.72
74372;BME280;62885;51.374;6.170;2024-01-11T11:10:19;62298.19;;;-2.33;88.98
74372;BME280;62885;51.374;6.170;2024-01-11T11:12:46;62312.63;;;-2.22;88.21
74372;BME280;62885;51.374;6.170;2024-01-11T11:15:13;62309.00;;;-2.20;88.20
74372;BME280;62885;51.374;6.170;2024-01-11T11:17:40;62315.91;;;-2.16;88.04
74372;BME280;62885;51.374;6.170;2024-01-11T11:20:08;62315.38;;;-2.17;86.39
74372;BME280;62885;51.374;6.170;2024-01-11T11:22:34;62328.19;;;-2.07;86.67
74372;BME280;62885;51.374;6.170;2024-01-11T11:25:08;62335.16;;;-2.00;85.69
74372;BME280;62885;51.374;6.170;2024-01-11T11:27:33;62334.72;;;-1.98;85.62
74372;BME280;62885;51.374;6.170;2024-01-11T11:29:58;62330.94;;;-2.02;86.01
74372;BME280;62885;51.374;6.170;2024-01-11T11:32:37;62341.69;;;-1.92;86.19
74372;BME280;62885;51.374;6.170;2024-01-11T11:35:04;62346.06;;;-1.85;85.64
74372;BME280;62885;51.374;6.170;2024-01-11T11:37:29;62349.75;;;-1.84;84.76
74372;BME280;62885;51.374;6.170;2024-01-11T11:39:55;62343.22;;;-1.93;85.57
74372;BME280;62885;51.374;6.170;2024-01-11T11:42:22;62350.81;;;-1.83;85.54
74372;BME280;62885;51.374;6.170;2024-01-11T11:44:49;62366.41;;;-1.69;85.30
74372;BME280;62885;51.374;6.170;2024-01-11T11:47:19;62369.19;;;-1.63;84.64
74372;BME280;62885;51.374;6.170;2024-01-11T11:50:08;62369.09;;;-1.66;82.92
74372;BME280;62885;51.374;6.170;2024-01-11T11:52:36;62375.53;;;-1.60;82.95
74372;BME280;62885;51.374;6.170;2024-01-11T11:55:02;62386.75;;;-1.52;82.33
74372;BME280;62885;51.374;6.170;2024-01-11T11:57:28;62398.63;;;-1.38;81.95
74372;BME280;62885;51.374;6.170;2024-01-11T11:59:57;62402.41;;;-1.35;81.11
74372;BME280;62885;51.374;6.170;2024-01-11T12:02:24;62408.31;;;-1.29;80.55
74372;BME280;62885;51.374;6.170;2024-01-11T12:04:50;62420.16;;;-1.18;79.65
74372;BME280;62885;51.374;6.170;2024-01-11T12:07:15;62415.84;;;-1.22;79.31
74372;BME280;62885;51.374;6.170;2024-01-11T12:09:41;62422.28;;;-1.16;78.95
74372;BME280;62885;51.374;6.170;2024-01-11T12:12:07;62431.34;;;-1.10;78.29
74372;BME280;62885;51.374;6.170;2024-01-11T12:14:34;62432.97;;;-1.08;77.71
74372;BME280;62885;51.374;6.170;2024-01-11T12:16:59;62438.34;;;-1.03;76.89
74372;BME280;62885;51.374;6.170;2024-01-11T12:19:25;62437.44;;;-0.99;77.57
74372;BME280;62885;51.374;6.170;2024-01-11T12:21:51;62455.63;;;-0.85;81.82
74372;BME280;62885;51.374;6.170;2024-01-11T12:24:17;62456.78;;;-0.81;82.96
74372;BME280;62885;51.374;6.170;2024-01-11T12:26:43;62462.19;;;-0.76;82.08
74372;BME280;62885;51.374;6.170;2024-01-11T12:29:08;62463.78;;;-0.74;82.46
74372;BME280;62885;51.374;6.170;2024-01-11T12:31:34;62466.38;;;-0.74;81.17
74372;BME280;62885;51.374;6.170;2024-01-11T12:34:03;62466.94;;;-0.74;81.26
74372;BME280;62885;51.374;6.170;2024-01-11T12:36:29;62479.84;;;-0.62;82.47
74372;BME280;62885;51.374;6.170;2024-01-11T12:38:55;62483.06;;;-0.59;80.49
74372;BME280;62885;51.374;6.170;2024-01-11T12:41:23;62494.81;;;-0.50;81.46